createdAt,value
2019-05-13T05:31:52.420Z,3.87
2019-05-13T05:32:52.393Z,3.93
2019-05-13T05:33:52.350Z,4.00
2019-05-13T05:34:52.324Z,4.23
2019-05-13T05:35:52.296Z,4.47
2019-05-13T05:36:52.275Z,4.63
2019-05-13T05:37:52.338Z,5.04
2019-05-13T05:38:52.217Z,5.39
2019-05-13T05:39:52.191Z,5.57
2019-05-13T05:40:52.167Z,5.63
2019-05-13T05:41:52.142Z,5.64
2019-05-13T05:42:52.131Z,5.54
2019-05-13T05:43:52.325Z,5.68
2019-05-13T06:03:52.970Z,7.87
2019-05-13T06:04:52.934Z,7.72
2019-05-13T06:05:52.913Z,7.72
2019-05-13T06:06:52.881Z,7.74
2019-05-13T06:07:52.873Z,7.86
2019-05-13T06:08:52.845Z,8.18
2019-05-13T06:10:02.402Z,8.18
2019-05-13T06:10:53.844Z,8.28
2019-05-13T06:11:52.761Z,8.15
2019-05-13T06:12:52.781Z,8.25
2019-05-13T06:23:04.940Z,8.84
2019-05-13T06:24:04.948Z,9.18
2019-05-13T06:25:04.877Z,9.58
2019-05-13T06:26:04.868Z,9.89
2019-05-13T06:27:04.830Z,10.12
2019-05-13T06:28:04.808Z,10.32
2019-05-13T06:29:04.800Z,10.68
2019-05-13T06:30:04.766Z,10.74
2019-05-13T06:31:04.743Z,10.89
2019-05-13T06:32:18.170Z,10.88
2019-05-13T06:33:04.699Z,11.10
2019-05-13T06:38:48.109Z,11.21
2019-05-13T06:39:48.073Z,10.92
2019-05-13T06:41:02.481Z,11.00
2019-05-13T06:41:48.030Z,11.04
2019-05-13T06:42:48.009Z,11.29
2019-05-13T06:43:48.023Z,11.55
2019-05-13T06:44:47.966Z,12.01
2019-05-13T06:45:47.947Z,12.21
2019-05-13T06:46:47.925Z,12.50
2019-05-13T06:47:47.919Z,12.79
2019-05-13T06:48:47.889Z,13.03
2019-05-13T06:49:47.948Z,12.93
2019-05-13T06:50:47.859Z,12.42
2019-05-13T06:51:47.857Z,12.46
2019-05-13T06:52:47.821Z,12.37
2019-05-13T06:53:47.795Z,12.59
2019-05-13T06:54:47.776Z,12.72
2019-05-13T06:55:47.748Z,12.82
2019-05-13T06:56:47.729Z,12.89
2019-05-13T06:57:47.708Z,12.35
2019-05-13T06:58:47.683Z,12.49
2019-05-13T06:59:47.677Z,12.64
2019-05-13T07:00:47.644Z,12.49
2019-05-13T07:01:47.625Z,12.50
2019-05-13T07:02:47.607Z,12.17
2019-05-13T07:03:47.586Z,11.98
2019-05-13T07:04:47.585Z,11.67
2019-05-13T07:05:47.547Z,11.49
2019-05-13T07:06:47.528Z,11.76
2019-05-13T07:07:47.507Z,11.88
2019-05-13T07:08:47.490Z,11.95
2019-05-13T07:09:47.471Z,12.13
2019-05-13T07:15:25.471Z,12.71
2019-05-13T07:16:25.436Z,12.47
2019-05-13T07:17:25.416Z,12.21
2019-05-13T07:18:25.397Z,11.95
2019-05-13T07:24:06.837Z,10.34
2019-05-13T07:25:06.845Z,10.18
2019-05-13T07:26:06.782Z,10.18
2019-05-13T07:27:06.761Z,10.29
2019-05-13T07:33:31.846Z,10.81
2019-05-13T07:34:32.948Z,10.91
2019-05-13T07:35:32.367Z,10.86
2019-05-13T07:36:31.423Z,10.92
2019-05-13T07:43:12.288Z,10.41
2019-05-13T07:44:11.953Z,10.51
2019-05-13T07:45:12.143Z,10.68
2019-05-13T07:46:12.610Z,10.51
2019-05-13T07:52:37.313Z,10.26
2019-05-13T07:53:37.282Z,10.51
2019-05-13T07:54:37.261Z,10.53
2019-05-13T07:55:37.242Z,10.67
2019-05-13T07:56:37.233Z,10.45
2019-05-13T08:01:12.219Z,10.86
2019-05-13T08:02:12.384Z,10.81
2019-05-13T08:03:12.407Z,10.97
2019-05-13T08:04:21.772Z,10.99
2019-05-13T08:10:00.019Z,11.14
2019-05-13T08:10:55.741Z,11.15
2019-05-13T08:12:08.707Z,11.11
2019-05-13T08:19:32.604Z,11.32
2019-05-13T08:20:32.700Z,11.37
2019-05-13T08:21:32.239Z,11.36
2019-05-13T08:22:32.064Z,11.24
2019-05-13T08:31:09.350Z,11.43
2019-05-13T08:32:11.306Z,11.61
2019-05-13T08:33:09.307Z,11.72
2019-05-13T08:34:11.561Z,11.83
2019-05-13T08:55:08.420Z,12.13
2019-05-13T08:56:08.385Z,12.27
2019-05-13T08:57:08.364Z,11.99
2019-05-13T08:58:08.343Z,12.07
2019-05-13T08:59:08.340Z,11.96
2019-05-13T09:22:25.753Z,14.04
2019-05-13T09:23:25.717Z,14.12
2019-05-13T09:24:33.028Z,14.10
2019-05-13T09:25:25.691Z,14.03
2019-05-13T09:26:25.657Z,14.06
2019-05-13T09:27:25.637Z,14.07
2019-05-13T09:28:25.619Z,14.14
2019-05-13T09:29:25.600Z,14.10
2019-05-13T09:42:52.097Z,14.47
2019-05-13T09:43:48.608Z,14.46
2019-05-13T09:44:48.589Z,14.39
2019-05-13T09:45:48.569Z,14.54
2019-05-13T09:46:48.563Z,14.57
2019-05-13T09:47:48.532Z,14.52
2019-05-13T10:01:51.782Z,15.16
2019-05-13T10:02:51.655Z,15.07
2019-05-13T10:03:56.981Z,15.07
2019-05-13T10:04:51.567Z,15.13
2019-05-13T10:05:51.824Z,15.19
2019-05-13T10:06:49.373Z,15.10
2019-05-13T10:07:49.318Z,15.17
2019-05-13T10:15:17.559Z,15.20
2019-05-13T10:16:17.527Z,15.25
2019-05-13T10:17:17.544Z,15.36
2019-05-13T10:18:17.491Z,15.28
2019-05-13T10:19:17.479Z,15.46
2019-05-13T10:20:17.452Z,15.57
2019-05-13T10:39:11.898Z,15.90
2019-05-13T10:40:11.589Z,16.02
2019-05-13T10:41:12.008Z,16.01
2019-05-13T10:42:12.018Z,15.72
2019-05-13T10:43:27.165Z,15.75
2019-05-13T10:44:12.152Z,15.93
2019-05-13T10:45:12.827Z,16.09
2019-05-13T10:59:39.129Z,16.41
2019-05-13T11:00:39.097Z,16.75
2019-05-13T11:01:41.800Z,16.85
2019-05-13T11:02:39.064Z,16.91
2019-05-13T11:03:39.044Z,17.31
2019-05-13T11:04:41.272Z,17.63
2019-05-13T11:05:43.872Z,17.92
2019-05-13T11:06:39.282Z,18.29
2019-05-13T11:07:38.978Z,18.63
2019-05-13T11:08:41.647Z,18.78
2019-05-13T11:09:41.575Z,18.84
2019-05-13T11:10:38.926Z,18.48
2019-05-13T11:11:41.000Z,18.78
2019-05-13T11:12:41.730Z,18.81
2019-05-13T11:13:52.345Z,18.94
2019-05-13T11:14:38.883Z,18.92
2019-05-13T11:15:40.835Z,19.36
2019-05-13T11:16:38.833Z,18.90
2019-05-13T11:17:38.817Z,19.36
2019-05-13T11:18:38.802Z,19.06
2019-05-13T11:19:38.806Z,19.18
2019-05-13T11:20:38.770Z,19.08
2019-05-13T11:21:38.755Z,19.81
2019-05-13T11:22:38.739Z,20.10
2019-05-13T11:23:38.723Z,19.56
2019-05-13T11:24:38.721Z,19.77
2019-05-13T11:25:41.181Z,20.11
2019-05-13T11:26:38.678Z,19.99
2019-05-13T11:27:38.664Z,20.13
2019-05-13T11:28:38.649Z,19.76
2019-05-13T11:29:38.648Z,19.44
2019-05-13T11:30:38.620Z,19.29
2019-05-13T11:31:38.608Z,19.18
2019-05-13T11:32:38.589Z,18.70
2019-05-13T11:33:38.577Z,19.02
2019-05-13T11:34:38.570Z,19.31
2019-05-13T11:35:38.545Z,19.84
2019-05-13T11:36:42.729Z,19.68
2019-05-13T11:37:38.516Z,19.83
2019-05-13T11:38:38.498Z,19.84
2019-05-13T11:39:38.497Z,19.62
2019-05-13T11:40:38.469Z,19.99
2019-05-13T11:41:38.460Z,19.43
2019-05-13T11:42:38.444Z,19.14
2019-05-13T11:43:38.426Z,19.51
2019-05-13T11:44:38.427Z,19.71
2019-05-13T11:45:38.397Z,19.77
2019-05-13T11:46:38.382Z,20.01
2019-05-13T11:47:38.366Z,19.65
2019-05-13T11:48:38.352Z,19.22
2019-05-13T11:49:38.377Z,19.39
2019-05-13T11:50:38.324Z,18.81
2019-05-13T11:51:38.308Z,18.63
2019-05-13T11:52:38.298Z,18.90
2019-05-13T11:53:38.513Z,18.67
2019-05-13T11:54:38.266Z,18.98
2019-05-13T11:55:38.269Z,19.46
2019-05-13T11:56:45.347Z,19.04
2019-05-13T11:57:38.224Z,19.36
2019-05-13T11:58:38.207Z,19.92
2019-05-13T11:59:38.192Z,20.38
2019-05-13T12:00:38.193Z,19.54
2019-05-13T12:01:38.164Z,19.87
2019-05-13T12:02:38.170Z,19.43
2019-05-13T12:03:38.136Z,19.84
2019-05-13T12:04:38.122Z,19.78
2019-05-13T12:05:38.127Z,20.03
2019-05-13T12:06:44.656Z,20.43
2019-05-13T12:07:38.079Z,20.55
2019-05-13T12:08:38.082Z,20.61
2019-05-13T12:09:38.051Z,20.70
2019-05-13T12:10:38.034Z,20.99
2019-05-13T12:11:38.037Z,21.43
2019-05-13T12:12:38.017Z,21.06
2019-05-13T12:13:37.993Z,21.25
2019-05-13T12:15:45.878Z,21.59
2019-05-13T12:16:37.967Z,21.58
2019-05-13T12:17:37.964Z,20.77
2019-05-13T12:18:43.484Z,21.25
2019-05-13T12:19:37.953Z,21.59
2019-05-13T12:20:37.896Z,21.71
2019-05-13T12:21:43.211Z,21.56
2019-05-13T12:22:37.868Z,21.90
2019-05-13T12:23:37.854Z,22.22
2019-05-13T12:24:37.841Z,22.03
2019-05-13T12:25:37.825Z,22.31
2019-05-13T12:26:37.832Z,23.04
2019-05-13T12:27:37.798Z,22.15
2019-05-13T12:28:37.782Z,22.10
2019-05-13T12:29:37.770Z,22.00
2019-05-13T12:30:37.757Z,21.86
2019-05-13T12:31:37.755Z,21.58
2019-05-13T12:32:37.728Z,22.24
2019-05-13T12:33:37.716Z,22.17
2019-05-13T12:34:41.796Z,22.46
2019-05-13T12:35:37.687Z,23.12
2019-05-13T12:36:37.735Z,23.48
2019-05-13T12:37:37.665Z,21.54
2019-05-13T12:38:37.647Z,20.23
2019-05-13T12:39:37.690Z,20.69
2019-05-13T12:40:37.621Z,21.52
2019-05-13T12:41:37.625Z,22.42
2019-05-13T12:42:43.278Z,22.46
2019-05-13T12:43:37.586Z,21.90
2019-05-13T12:44:59.809Z,22.18
2019-05-13T12:45:37.556Z,21.25
2019-05-13T12:46:37.560Z,21.83
2019-05-13T12:47:37.531Z,21.91
2019-05-13T12:48:37.519Z,22.05
2019-05-13T12:49:37.504Z,22.57
2019-05-13T12:50:37.490Z,21.94
2019-05-13T12:51:37.479Z,22.02
2019-05-13T12:52:37.480Z,21.31
2019-05-13T12:53:37.453Z,21.86
2019-05-13T12:54:37.442Z,21.71
2019-05-13T12:55:37.430Z,21.14
2019-05-13T12:56:37.418Z,21.38
2019-05-13T12:57:37.417Z,21.68
2019-05-13T12:58:37.392Z,22.02
2019-05-13T12:59:37.381Z,21.84
2019-05-13T13:00:37.368Z,22.18
2019-05-13T13:01:37.353Z,21.65
2019-05-13T13:02:37.378Z,22.02
2019-05-13T13:03:37.330Z,22.39
2019-05-13T13:04:37.319Z,22.28
2019-05-13T13:05:37.344Z,22.82
2019-05-13T13:06:40.556Z,23.04
2019-05-13T13:07:41.230Z,22.82
2019-05-13T13:08:43.330Z,22.82
2019-05-13T13:09:37.262Z,22.39
2019-05-13T13:10:37.250Z,23.04
2019-05-13T13:11:37.239Z,21.71
2019-05-13T13:12:37.235Z,22.36
2019-05-13T13:13:56.718Z,22.68
2019-05-13T13:14:39.577Z,21.90
2019-05-13T13:15:41.879Z,21.83
2019-05-13T13:16:37.183Z,22.00
2019-05-13T13:17:37.172Z,21.64
2019-05-13T13:18:37.213Z,21.79
2019-05-13T13:19:37.151Z,21.04
2019-05-13T13:20:42.164Z,20.14
2019-05-13T13:21:37.823Z,19.96
2019-05-13T13:22:37.121Z,20.50
2019-05-13T13:23:37.125Z,21.46
2019-05-13T13:24:37.099Z,22.02
2019-05-13T13:25:37.088Z,22.03
2019-05-13T13:26:37.076Z,21.21
2019-05-13T13:28:37.056Z,21.90
2019-05-13T13:29:37.062Z,22.18
2019-05-13T13:30:37.036Z,21.59
2019-05-13T13:31:37.026Z,21.22
2019-05-13T13:32:37.015Z,21.74
2019-05-13T13:33:37.006Z,21.96
2019-05-13T13:34:37.055Z,22.80
2019-05-13T13:35:36.988Z,22.88
2019-05-13T13:36:36.977Z,23.27
2019-05-13T13:37:36.968Z,23.38
2019-05-13T13:38:36.957Z,23.02
2019-05-13T13:39:36.962Z,23.33
2019-05-13T13:40:36.940Z,23.83
2019-05-13T13:41:36.932Z,23.16
2019-05-13T13:42:36.924Z,22.95
2019-05-13T13:43:37.521Z,23.01
2019-05-13T13:44:36.919Z,23.27
2019-05-13T13:46:05.204Z,23.76
2019-05-13T13:46:42.989Z,24.02
2019-05-13T13:47:36.876Z,24.22
2019-05-13T13:48:36.871Z,24.64
2019-05-13T13:49:36.880Z,24.27
2019-05-13T13:50:36.858Z,23.50
2019-05-13T13:51:36.845Z,23.48
2019-05-13T13:52:36.837Z,23.75
2019-05-13T13:53:36.828Z,23.15
2019-05-13T13:54:36.826Z,23.00
2019-05-13T13:55:36.825Z,23.04
2019-05-13T13:56:36.802Z,22.98
2019-05-13T13:57:36.798Z,23.01
2019-05-13T13:58:36.786Z,22.92
2019-05-13T14:00:11.754Z,23.13
2019-05-13T14:00:47.222Z,22.88
2019-05-13T14:01:36.771Z,23.01
2019-05-13T14:02:37.224Z,23.43
2019-05-13T14:03:36.748Z,23.75
2019-05-13T14:04:36.739Z,23.85
2019-05-13T14:05:36.757Z,23.57
2019-05-13T14:06:32.041Z,21.27
2019-05-13T14:06:55.941Z,22.02
2019-05-13T14:07:38.920Z,22.92
2019-05-13T14:08:36.710Z,23.98
2019-05-13T14:09:36.704Z,21.80
2019-05-13T14:10:36.710Z,22.79
2019-05-13T14:11:36.690Z,22.97
2019-05-13T14:12:36.681Z,23.02
2019-05-13T14:13:36.677Z,23.42
2019-05-13T14:14:36.678Z,23.13
2019-05-13T14:15:36.699Z,23.78
2019-05-13T14:16:36.654Z,23.91
2019-05-13T14:17:36.648Z,22.79
2019-05-13T14:18:36.641Z,23.35
2019-05-13T14:19:36.632Z,23.91
2019-05-13T14:20:36.628Z,23.48
2019-05-13T14:21:36.635Z,24.22
2019-05-13T14:22:36.614Z,23.58
2019-05-13T14:23:37.993Z,23.13
2019-05-13T14:24:36.604Z,23.53
2019-05-13T14:25:36.597Z,23.28
2019-05-13T14:26:36.607Z,23.97
2019-05-13T14:27:36.625Z,24.12
2019-05-13T14:28:36.597Z,23.88
2019-05-13T14:29:41.259Z,24.18
2019-05-13T14:30:36.668Z,24.67
2019-05-13T14:31:36.569Z,25.13
2019-05-13T14:32:36.550Z,25.72
2019-05-13T14:33:36.547Z,24.61
2019-05-13T14:34:36.541Z,24.39
2019-05-13T14:35:36.537Z,24.37
2019-05-13T14:36:36.543Z,24.39
2019-05-13T14:37:36.522Z,23.53
2019-05-13T14:38:36.514Z,23.39
2019-05-13T14:39:36.594Z,23.33
2019-05-13T14:40:36.507Z,23.05
2019-05-13T14:41:36.533Z,22.58
2019-05-13T14:42:36.491Z,23.32
2019-05-13T14:43:36.501Z,23.73
2019-05-13T14:44:36.480Z,23.66
2019-05-13T14:45:36.478Z,23.32
2019-05-13T14:46:47.157Z,22.62
2019-05-13T14:47:36.484Z,22.57
2019-05-13T14:48:36.461Z,23.20
2019-05-13T14:49:36.455Z,23.50
2019-05-13T14:50:36.448Z,23.60
2019-05-13T14:51:36.442Z,23.60
2019-05-13T14:52:36.456Z,24.25
2019-05-13T14:53:36.433Z,24.69
2019-05-13T14:54:36.426Z,24.83
2019-05-13T14:55:36.420Z,24.28
2019-05-13T14:56:36.416Z,24.15
2019-05-13T14:57:36.525Z,23.91
2019-05-13T14:58:36.418Z,24.50
2019-05-13T14:59:36.436Z,23.85
2019-05-13T15:00:37.305Z,24.93
2019-05-13T15:01:36.392Z,24.91
2019-05-13T15:02:36.413Z,24.77
2019-05-13T15:03:37.330Z,24.64
2019-05-13T15:04:36.376Z,24.84
2019-05-13T15:05:36.369Z,24.96
2019-05-13T15:06:36.364Z,24.27
2019-05-13T15:07:36.377Z,24.37
2019-05-13T15:08:36.359Z,23.70
2019-05-13T15:09:36.351Z,23.02
2019-05-13T15:10:36.344Z,23.66
2019-05-13T15:11:36.348Z,23.72
2019-05-13T15:12:36.353Z,23.01
2019-05-13T15:13:42.409Z,22.85
2019-05-13T15:14:36.326Z,22.22
2019-05-13T15:15:36.325Z,23.39
2019-05-13T15:16:36.382Z,23.19
2019-05-13T15:17:36.380Z,23.15
2019-05-13T15:18:36.309Z,23.36
2019-05-13T15:19:36.311Z,24.03
2019-05-13T15:20:36.303Z,23.93
2019-05-13T15:21:36.300Z,23.57
2019-05-13T15:22:36.820Z,24.46
2019-05-13T15:23:36.315Z,24.10
2019-05-13T15:24:36.282Z,24.15
2019-05-13T15:25:36.301Z,24.95
2019-05-13T15:26:36.274Z,25.00
2019-05-13T15:27:36.293Z,25.51
2019-05-13T15:28:36.274Z,24.95
2019-05-13T15:29:36.265Z,23.80
2019-05-13T15:30:36.260Z,23.94
2019-05-13T15:31:36.255Z,24.43
2019-05-13T15:32:36.267Z,24.37
2019-05-13T15:33:36.249Z,24.45
2019-05-13T15:34:36.246Z,23.55
2019-05-13T15:35:36.241Z,24.24
2019-05-13T15:36:36.237Z,24.08
2019-05-13T15:37:36.264Z,25.17
2019-05-13T15:38:36.246Z,24.76
2019-05-13T15:39:36.227Z,24.64
2019-05-13T15:40:36.227Z,24.50
2019-05-13T15:41:36.221Z,24.45
2019-05-13T15:42:36.235Z,24.76
2019-05-13T15:43:36.202Z,25.06
2019-05-13T15:44:36.214Z,23.85
2019-05-13T15:45:36.200Z,23.33
2019-05-13T15:46:36.242Z,23.04
2019-05-13T15:47:36.207Z,23.23
2019-05-13T15:48:36.189Z,22.75
2019-05-13T15:49:36.186Z,23.54
2019-05-13T15:50:36.195Z,23.57
2019-05-13T15:51:36.177Z,23.00
2019-05-13T15:52:36.228Z,22.45
2019-05-13T15:53:36.198Z,22.46
2019-05-13T15:54:37.056Z,23.25
2019-05-13T15:55:36.254Z,22.58
2019-05-13T15:56:36.198Z,22.60
2019-05-13T15:57:36.226Z,22.60
2019-05-13T15:59:09.034Z,22.21
2019-05-13T15:59:36.167Z,23.15
2019-05-13T16:00:36.182Z,22.86
2019-05-13T16:01:36.179Z,23.09
2019-05-13T16:02:36.155Z,23.38
2019-05-13T16:03:36.169Z,23.53
2019-05-13T16:04:49.068Z,22.77
2019-05-13T16:05:36.126Z,22.42
2019-05-13T16:06:36.126Z,23.47
2019-05-13T16:07:36.122Z,23.70
2019-05-13T16:08:36.134Z,23.46
2019-05-13T16:09:36.112Z,23.33
2019-05-13T16:10:36.102Z,23.40
2019-05-13T16:11:36.105Z,23.15
2019-05-13T16:12:36.110Z,23.57
2019-05-13T16:13:36.176Z,22.80
2019-05-13T16:14:36.133Z,23.39
2019-05-13T16:15:36.095Z,22.94
2019-05-13T16:16:36.089Z,23.01
2019-05-13T16:17:41.171Z,22.25
2019-05-13T16:18:36.101Z,22.85
2019-05-13T16:19:36.826Z,23.02
2019-05-13T16:20:36.077Z,23.33
2019-05-13T16:21:36.087Z,22.21
2019-05-13T16:22:36.060Z,23.09
2019-05-13T16:23:36.060Z,23.33
2019-05-13T16:24:36.073Z,24.35
2019-05-13T16:25:36.093Z,24.83
2019-05-13T16:26:36.075Z,23.98
2019-05-13T16:27:36.304Z,23.50
2019-05-13T16:28:36.067Z,23.35
2019-05-13T16:29:36.185Z,23.32
2019-05-13T16:30:36.109Z,23.07
2019-05-13T16:31:36.033Z,22.42
2019-05-13T16:32:36.028Z,22.43
2019-05-13T16:33:36.027Z,22.36
2019-05-13T16:34:36.031Z,22.35
2019-05-13T16:35:36.099Z,22.45
2019-05-13T16:36:36.030Z,23.01
2019-05-13T16:37:36.028Z,23.16
2019-05-13T16:38:36.113Z,22.57
2019-05-13T16:39:36.010Z,22.77
2019-05-13T16:40:36.813Z,23.63
2019-05-13T16:41:36.036Z,22.46
2019-05-13T16:42:36.017Z,22.83
2019-05-13T16:43:36.173Z,23.25
2019-05-13T16:44:36.139Z,22.45
2019-05-13T16:45:36.019Z,22.47
2019-05-13T16:46:35.974Z,21.54
2019-05-13T16:47:36.000Z,21.38
2019-05-13T16:48:36.004Z,22.03
2019-05-13T16:49:35.979Z,22.15
2019-05-13T16:50:35.977Z,22.21
2019-05-13T16:51:35.954Z,22.90
2019-05-13T16:52:35.948Z,23.28
2019-05-13T16:53:35.949Z,22.83
2019-05-13T16:54:36.004Z,22.77
2019-05-13T16:55:35.953Z,22.80
2019-05-13T16:56:36.896Z,23.33
2019-05-13T16:57:36.004Z,23.87
2019-05-13T16:58:35.927Z,23.36
2019-05-13T16:59:35.922Z,22.94
2019-05-13T17:00:36.890Z,22.00
2019-05-13T17:01:35.926Z,21.91
2019-05-13T17:02:35.915Z,22.31
2019-05-13T17:03:35.949Z,21.88
2019-05-13T17:04:36.188Z,22.61
2019-05-13T17:05:35.915Z,22.91
2019-05-13T17:06:35.891Z,21.84
2019-05-13T17:07:35.888Z,21.52
2019-05-13T17:08:35.887Z,21.75
2019-05-13T17:09:35.885Z,21.94
2019-05-13T17:10:35.898Z,22.25
2019-05-13T17:11:35.873Z,22.03
2019-05-13T17:12:35.870Z,21.40
2019-05-13T17:13:35.867Z,21.94
2019-05-13T17:14:35.869Z,21.68
2019-05-13T17:15:35.859Z,22.03
2019-05-13T17:16:35.876Z,21.96
2019-05-13T17:17:35.857Z,22.54
2019-05-13T17:18:35.862Z,22.76
2019-05-13T17:19:35.881Z,22.10
2019-05-13T17:20:35.880Z,22.40
2019-05-13T17:21:36.224Z,22.02
2019-05-13T17:22:35.858Z,21.31
2019-05-13T17:23:35.832Z,21.53
2019-05-13T17:24:35.824Z,21.27
2019-05-13T17:25:35.813Z,20.54
2019-05-13T17:26:35.828Z,20.59
2019-05-13T17:27:35.806Z,20.28
2019-05-13T17:28:35.804Z,20.26
2019-05-13T17:29:35.794Z,20.28
2019-05-13T17:30:35.785Z,20.05
2019-05-13T17:31:35.841Z,19.86
2019-05-13T17:32:35.782Z,19.83
2019-05-13T17:33:35.791Z,19.48
2019-05-13T17:34:35.766Z,19.63
2019-05-13T17:35:35.755Z,19.48
2019-05-13T17:36:35.786Z,19.16
2019-05-13T17:37:35.762Z,19.00
2019-05-13T17:38:35.741Z,18.75
2019-05-13T17:39:35.732Z,18.69
2019-05-13T17:40:35.739Z,18.37
2019-05-13T17:41:35.715Z,18.39
2019-05-13T17:42:35.725Z,18.51
2019-05-13T17:43:35.699Z,18.26
2019-05-13T17:44:35.716Z,18.20
2019-05-13T17:45:35.698Z,17.63
2019-05-13T17:46:35.701Z,17.78
2019-05-13T17:47:35.682Z,17.90
2019-05-13T17:48:35.672Z,17.95
2019-05-13T17:49:35.681Z,17.71
2019-05-13T17:50:35.642Z,17.58
2019-05-13T17:51:35.633Z,17.64
2019-05-13T17:52:35.673Z,17.59
2019-05-13T17:53:35.639Z,17.48
2019-05-13T17:54:35.596Z,17.36
2019-05-13T17:55:35.606Z,17.21
2019-05-13T17:56:35.571Z,17.22
2019-05-13T17:57:35.592Z,17.19
2019-05-13T17:58:35.554Z,17.16
2019-05-13T17:59:35.536Z,16.97
2019-05-13T18:00:35.531Z,16.98
2019-05-13T18:01:35.512Z,17.03
2019-05-13T18:02:35.516Z,17.06
2019-05-13T18:03:35.488Z,16.85
2019-05-13T18:04:35.480Z,16.81
2019-05-13T18:05:35.464Z,16.75
2019-05-13T18:06:35.450Z,16.75
2019-05-13T18:07:35.466Z,16.57
2019-05-13T18:08:35.434Z,16.58
2019-05-13T18:09:35.412Z,16.63
2019-05-13T18:10:35.403Z,16.61
2019-05-13T18:11:35.385Z,16.43
2019-05-13T18:12:35.386Z,16.50
2019-05-13T18:13:35.363Z,16.42
2019-05-13T18:14:35.344Z,16.23
2019-05-13T18:15:35.329Z,16.34
2019-05-13T18:16:35.316Z,16.24
2019-05-13T18:17:35.343Z,16.34
2019-05-13T18:18:42.534Z,16.42
2019-05-13T18:19:35.280Z,16.41
2019-05-13T18:20:35.260Z,16.34
2019-05-13T18:21:35.244Z,16.12
2019-05-13T18:22:35.231Z,16.11
2019-05-13T18:23:35.226Z,16.04
2019-05-13T18:24:35.200Z,15.92
2019-05-13T18:25:35.187Z,15.92
2019-05-13T18:26:35.170Z,15.69
2019-05-13T18:27:35.155Z,15.62
2019-05-13T18:28:35.157Z,15.60
2019-05-13T18:29:35.131Z,15.57
2019-05-13T18:30:35.109Z,15.60
2019-05-13T18:31:35.100Z,15.62
2019-05-13T18:32:35.081Z,15.51
2019-05-13T18:33:35.084Z,15.44
2019-05-13T18:34:35.056Z,15.34
2019-05-13T18:35:35.039Z,15.25
2019-05-13T18:36:35.020Z,15.10
2019-05-13T18:37:35.018Z,15.03
2019-05-13T18:38:35.003Z,14.96
2019-05-13T18:39:34.979Z,14.89
2019-05-13T18:40:34.964Z,14.95
2019-05-13T18:41:34.949Z,14.77
2019-05-13T18:42:34.928Z,14.70
2019-05-13T18:43:34.918Z,14.70
2019-05-13T18:44:34.921Z,14.68
2019-05-13T18:45:34.883Z,14.46
2019-05-13T18:46:34.874Z,14.36
2019-05-13T18:47:34.849Z,14.35
2019-05-13T18:48:34.834Z,14.24
2019-05-13T18:49:34.836Z,14.21
2019-05-13T18:50:34.803Z,14.06
2019-05-13T18:51:34.786Z,14.10
2019-05-13T18:52:34.787Z,14.06
2019-05-13T18:53:34.754Z,14.00
2019-05-13T18:54:34.753Z,13.88
2019-05-13T18:55:34.718Z,13.70
2019-05-13T18:56:34.717Z,13.82
2019-05-13T18:57:34.694Z,13.70
2019-05-13T18:58:34.673Z,13.60
2019-05-13T18:59:34.672Z,13.62
2019-05-13T19:00:34.639Z,13.51
2019-05-13T19:01:34.623Z,13.55
2019-05-13T19:02:34.610Z,13.45
2019-05-13T19:03:34.587Z,13.30
2019-05-13T19:04:34.589Z,13.10
2019-05-13T19:05:34.557Z,13.03
2019-05-13T19:06:34.543Z,13.01
2019-05-13T19:07:34.519Z,13.11
2019-05-13T19:08:34.509Z,13.07
2019-05-13T19:09:34.497Z,13.05
2019-05-13T19:10:34.503Z,13.00
2019-05-13T19:11:34.453Z,12.86
2019-05-13T19:12:34.437Z,12.82
2019-05-13T19:13:34.423Z,12.71
2019-05-13T19:14:34.406Z,12.72
2019-05-13T19:15:34.425Z,12.60
2019-05-13T19:16:34.394Z,12.59
2019-05-13T19:17:36.272Z,12.70
2019-05-13T19:18:34.346Z,12.70
2019-05-13T19:19:34.329Z,12.72
2019-05-13T19:20:34.329Z,12.56
2019-05-13T19:21:34.295Z,12.47
2019-05-13T19:22:34.288Z,12.57
2019-05-13T19:23:34.255Z,12.59
2019-05-13T19:24:34.233Z,12.49
2019-05-13T19:25:34.232Z,12.45
2019-05-13T19:26:34.196Z,12.37
2019-05-13T19:27:34.182Z,12.29
2019-05-13T19:28:34.163Z,12.28
2019-05-13T19:29:34.149Z,12.12
2019-05-13T19:30:34.145Z,12.05
2019-05-13T19:31:34.109Z,12.01
2019-05-13T19:32:34.092Z,11.94
2019-05-13T19:33:34.080Z,11.99
2019-05-13T19:34:34.062Z,11.98
2019-05-13T19:35:34.056Z,12.01
2019-05-13T19:36:34.024Z,11.91
2019-05-13T19:37:34.001Z,11.90
2019-05-13T19:38:33.989Z,11.85
2019-05-13T19:39:33.973Z,11.88
2019-05-13T19:40:33.973Z,11.88
2019-05-13T19:41:33.935Z,11.86
2019-05-13T19:42:33.915Z,11.65
2019-05-13T19:43:33.910Z,11.64
2019-05-13T19:44:33.881Z,11.55
2019-05-13T19:45:33.879Z,11.44
2019-05-13T19:46:33.846Z,11.40
2019-05-13T19:47:33.829Z,11.32
2019-05-13T19:48:33.818Z,11.22
2019-05-13T19:49:36.983Z,11.21
2019-05-13T19:50:33.789Z,11.18
2019-05-13T19:51:33.755Z,11.04
2019-05-13T19:52:33.740Z,10.97
2019-05-13T19:53:33.719Z,10.84
2019-05-13T19:54:33.708Z,10.63
2019-05-13T19:55:33.972Z,10.53
2019-05-13T19:56:33.664Z,10.34
2019-05-13T19:57:33.645Z,10.30
2019-05-13T19:58:33.631Z,10.23
2019-05-13T19:59:33.626Z,10.18
2019-05-13T20:00:33.608Z,10.18
2019-05-13T20:01:33.579Z,10.22
2019-05-13T20:02:33.559Z,10.12
2019-05-13T20:03:33.549Z,10.20
2019-05-13T20:04:33.531Z,10.20
2019-05-13T20:05:33.515Z,10.11
2019-05-13T20:06:33.482Z,10.04
2019-05-13T20:07:33.460Z,9.99
2019-05-13T20:08:33.445Z,9.86
2019-05-13T20:09:33.427Z,9.91
2019-05-13T20:10:33.425Z,9.72
2019-05-13T20:11:33.392Z,9.79
2019-05-13T20:12:33.367Z,9.78
2019-05-13T20:13:33.351Z,9.84
2019-05-13T20:14:33.342Z,9.71
2019-05-13T20:15:33.335Z,9.56
2019-05-13T20:16:33.295Z,9.56
2019-05-13T20:17:33.275Z,9.47
2019-05-13T20:18:33.255Z,9.50
2019-05-13T20:19:46.451Z,9.43
2019-05-13T20:20:33.240Z,9.46
2019-05-13T20:21:33.200Z,9.46
2019-05-13T20:22:33.188Z,9.47
2019-05-13T20:23:33.163Z,9.46
2019-05-13T20:24:33.141Z,9.43
2019-05-13T20:25:33.142Z,9.31
2019-05-13T20:26:35.645Z,9.32
2019-05-13T20:27:33.117Z,9.32
2019-05-13T20:28:33.088Z,9.31
2019-05-13T20:29:33.051Z,9.32
2019-05-13T20:30:33.059Z,9.20
2019-05-13T20:31:33.016Z,9.10
2019-05-13T20:32:32.992Z,8.99
2019-05-13T20:33:37.803Z,9.05
2019-05-13T20:34:32.952Z,9.01
2019-05-13T20:35:32.975Z,9.04
2019-05-13T20:36:32.931Z,9.11
2019-05-13T20:37:32.900Z,9.20
2019-05-13T20:38:32.878Z,9.32
2019-05-13T20:39:32.858Z,9.31
2019-05-13T20:40:32.856Z,9.42
2019-05-13T20:41:32.838Z,9.38
2019-05-13T20:42:32.805Z,9.51
2019-05-13T20:43:33.052Z,9.48
2019-05-13T20:44:32.759Z,9.56
2019-05-13T20:45:32.746Z,9.47
2019-05-13T20:46:32.835Z,9.35
2019-05-13T20:47:33.415Z,9.31
2019-05-13T20:48:32.689Z,9.28
2019-05-13T20:49:32.665Z,9.32
2019-05-13T20:50:32.653Z,9.17
2019-05-13T20:51:32.642Z,9.08
2019-05-13T20:52:32.611Z,8.96
2019-05-13T20:53:32.598Z,8.98
2019-05-13T20:54:32.566Z,8.83
2019-05-13T20:55:32.558Z,8.74
2019-05-13T20:56:32.548Z,8.77
2019-05-13T20:57:32.513Z,8.79
2019-05-13T20:58:32.494Z,8.58
2019-05-13T20:59:32.472Z,8.56
2019-05-13T21:00:32.512Z,8.56
2019-05-13T21:01:32.440Z,8.47
2019-05-13T21:02:32.427Z,8.41
2019-05-13T21:03:32.400Z,8.41
2019-05-13T21:04:32.451Z,8.43
2019-05-13T21:05:32.358Z,8.41
2019-05-13T21:06:32.337Z,8.43
2019-05-13T21:07:32.332Z,8.53
2019-05-13T21:08:32.358Z,8.55
2019-05-13T21:09:32.295Z,8.55
2019-05-13T21:10:32.255Z,8.43
2019-05-13T21:11:32.236Z,8.56
2019-05-13T21:12:32.258Z,8.45
2019-05-13T21:13:32.209Z,8.41
2019-05-13T21:14:32.248Z,8.43
2019-05-13T21:15:32.157Z,8.44
2019-05-13T21:16:32.417Z,8.44
2019-05-13T21:17:32.120Z,8.38
2019-05-13T21:18:32.116Z,8.40
2019-05-13T21:19:39.319Z,8.33
2019-05-13T21:20:32.179Z,8.18
2019-05-13T21:21:32.042Z,8.23
2019-05-13T21:22:32.024Z,8.19
2019-05-13T21:23:32.022Z,8.01
2019-05-13T21:24:32.052Z,8.07
2019-05-13T21:25:31.959Z,7.87
2019-05-13T21:26:32.008Z,7.86
2019-05-13T21:27:31.977Z,7.82
2019-05-13T21:28:31.918Z,7.79
2019-05-13T21:29:32.369Z,7.74
2019-05-13T21:30:31.869Z,7.80
2019-05-13T21:31:31.840Z,7.74
2019-05-13T21:32:31.823Z,7.75
2019-05-13T21:33:31.817Z,7.80
2019-05-13T21:34:31.794Z,7.71
2019-05-13T21:35:31.767Z,7.71